createdAt,value
2024-01-05T00:00:02.890Z,7.85
2024-01-05T00:02:30.479Z,7.77
2024-01-05T00:04:57.995Z,7.78
2024-01-05T00:07:25.519Z,7.83
2024-01-05T00:09:53.037Z,7.91
2024-01-05T00:12:20.524Z,7.93
2024-01-05T00:14:49.391Z,7.88
2024-01-05T00:17:17.078Z,7.92
2024-01-05T00:19:44.613Z,7.87
2024-01-05T00:22:12.195Z,7.87
2024-01-05T00:24:39.710Z,7.84
2024-01-05T00:27:07.249Z,7.72
2024-01-05T00:29:34.741Z,7.82
2024-01-05T00:32:03.621Z,7.81
2024-01-05T00:34:31.179Z,7.64
2024-01-05T00:36:58.724Z,7.60
2024-01-05T00:39:26.271Z,7.65
2024-01-05T00:41:53.815Z,7.69
2024-01-05T00:44:21.377Z,7.71
2024-01-05T00:46:48.939Z,7.56
2024-01-05T00:49:18.127Z,7.41
2024-01-05T00:51:45.705Z,7.37
2024-01-05T00:54:13.299Z,7.40
2024-01-05T00:56:41.009Z,7.40
2024-01-05T00:59:08.666Z,7.28
2024-01-05T01:01:36.316Z,7.15
2024-01-05T01:04:04.084Z,7.09
2024-01-05T01:06:33.028Z,7.18
2024-01-05T01:09:00.660Z,7.32
2024-01-05T01:11:28.871Z,7.40
2024-01-05T01:13:56.612Z,7.39
2024-01-05T01:16:24.240Z,7.39
2024-01-05T01:18:52.105Z,7.36
2024-01-05T01:21:19.751Z,7.34
2024-01-05T01:23:48.603Z,7.29
2024-01-05T01:26:16.106Z,7.09
2024-01-05T01:28:43.698Z,6.93
2024-01-05T01:31:11.288Z,6.83
2024-01-05T01:33:39.844Z,6.65
2024-01-05T01:36:08.100Z,6.65
2024-01-05T01:38:35.945Z,6.61
2024-01-05T01:41:04.848Z,6.72
2024-01-05T01:43:32.477Z,6.64
2024-01-05T01:46:02.644Z,6.59
2024-01-05T01:48:31.796Z,6.68
2024-01-05T01:51:00.363Z,6.63
2024-01-05T01:53:28.996Z,6.73
2024-01-05T01:55:57.724Z,6.55
2024-01-05T01:58:27.404Z,6.59
2024-01-05T02:00:55.126Z,6.49
2024-01-05T02:03:22.894Z,6.44
2024-01-05T02:05:50.471Z,6.49
2024-01-05T02:08:18.164Z,6.57
2024-01-05T02:10:45.676Z,6.53
2024-01-05T02:13:13.363Z,6.44
2024-01-05T02:15:42.210Z,6.46
2024-01-05T02:18:13.975Z,6.46
2024-01-05T02:20:41.662Z,6.63
2024-01-05T02:23:12.146Z,6.61
2024-01-05T02:25:41.672Z,6.49
2024-01-05T02:28:09.204Z,6.35
2024-01-05T02:30:36.731Z,6.33
2024-01-05T02:33:04.672Z,6.33
2024-01-05T02:35:32.206Z,6.36
2024-01-05T02:37:59.707Z,6.22
2024-01-05T02:40:27.206Z,6.16
2024-01-05T02:42:56.048Z,6.12
2024-01-05T02:45:23.724Z,6.18
2024-01-05T02:47:51.479Z,6.29
2024-01-05T02:50:19.586Z,6.29
2024-01-05T02:52:47.613Z,6.22
2024-01-05T02:55:15.446Z,6.18
2024-01-05T02:57:43.184Z,6.21
2024-01-05T03:00:13.128Z,5.98
2024-01-05T03:02:40.645Z,5.97
2024-01-05T03:05:08.792Z,5.90
2024-01-05T03:07:36.284Z,5.91
2024-01-05T03:10:04.049Z,5.91
2024-01-05T03:12:31.699Z,5.95
2024-01-05T03:14:59.315Z,6.03
2024-01-05T03:17:28.281Z,6.12
2024-01-05T03:19:55.814Z,6.15
2024-01-05T03:22:23.316Z,6.23
2024-01-05T03:24:50.820Z,6.21
2024-01-05T03:27:18.307Z,6.43
2024-01-05T03:29:45.867Z,6.37
2024-01-05T03:32:13.389Z,6.22
2024-01-05T03:34:42.252Z,6.21
2024-01-05T03:37:09.768Z,6.26
2024-01-05T03:39:37.477Z,6.24
2024-01-05T03:42:05.366Z,6.20
2024-01-05T03:44:32.861Z,6.26
2024-01-05T03:47:00.359Z,6.32
2024-01-05T03:49:27.948Z,6.33
2024-01-05T03:51:57.061Z,6.29
2024-01-05T03:54:24.557Z,6.29
2024-01-05T03:56:52.116Z,6.30
2024-01-05T03:59:19.622Z,6.32
2024-01-05T04:01:48.745Z,6.38
2024-01-05T04:04:16.976Z,6.47
2024-01-05T04:06:45.495Z,6.44
2024-01-05T04:09:14.687Z,6.49
2024-01-05T04:11:42.490Z,6.27
2024-01-05T04:14:10.275Z,6.41
2024-01-05T04:16:37.804Z,6.34
2024-01-05T04:19:05.410Z,6.32
2024-01-05T04:21:33.211Z,6.27
2024-01-05T04:24:00.783Z,6.36
2024-01-05T04:26:29.780Z,6.39
2024-01-05T04:28:57.278Z,6.34
2024-01-05T04:31:24.969Z,6.40
2024-01-05T04:33:52.686Z,6.46
2024-01-05T04:36:20.768Z,6.44
2024-01-05T04:38:48.890Z,6.39
2024-01-05T04:41:17.580Z,6.38
2024-01-05T04:43:46.431Z,6.28
2024-01-05T04:46:13.959Z,6.30
2024-01-05T04:48:41.633Z,6.32
2024-01-05T04:51:09.280Z,6.11
2024-01-05T04:53:36.788Z,6.17
2024-01-05T04:56:04.316Z,6.12
2024-01-05T04:58:31.862Z,6.06
2024-01-05T05:01:00.926Z,6.03
2024-01-05T05:03:30.865Z,5.99
2024-01-05T05:05:58.628Z,5.98
2024-01-05T05:08:26.129Z,6.01
2024-01-05T05:10:53.722Z,6.09
2024-01-05T05:13:21.214Z,6.14
2024-01-05T05:15:48.708Z,6.25
2024-01-05T05:18:17.709Z,6.19
2024-01-05T05:20:45.362Z,6.36
2024-01-05T05:23:12.948Z,6.46
2024-01-05T05:25:40.497Z,6.41
2024-01-05T05:28:07.998Z,6.25
2024-01-05T05:30:35.547Z,6.11
2024-01-05T05:33:03.245Z,5.97
2024-01-05T05:35:32.149Z,5.87
2024-01-05T05:37:59.624Z,5.86
2024-01-05T05:40:27.425Z,5.95
2024-01-05T05:42:54.910Z,6.05
2024-01-05T05:45:22.489Z,6.10
2024-01-05T05:47:50.093Z,6.26
2024-01-05T05:50:17.668Z,6.38
2024-01-05T05:52:46.886Z,6.37
2024-01-05T05:55:14.692Z,6.36
2024-01-05T05:57:42.290Z,6.37
2024-01-05T06:00:12.090Z,6.17
2024-01-05T06:02:39.848Z,6.13
2024-01-05T06:05:08.407Z,6.13
2024-01-05T06:07:35.983Z,6.26
2024-01-05T06:10:06.167Z,6.22
2024-01-05T06:12:33.732Z,6.37
2024-01-05T06:15:01.518Z,6.48
2024-01-05T06:17:29.111Z,6.39
2024-01-05T06:19:56.704Z,6.46
2024-01-05T06:22:24.360Z,6.57
2024-01-05T06:24:52.040Z,6.56
2024-01-05T06:27:25.638Z,6.59
2024-01-05T06:30:00.430Z,6.59
2024-01-05T06:32:28.055Z,6.69
2024-01-05T06:34:55.701Z,6.61
2024-01-05T06:37:23.380Z,6.74
2024-01-05T06:39:50.984Z,6.79
2024-01-05T06:42:18.481Z,6.78
2024-01-05T06:44:48.508Z,6.76
2024-01-05T06:47:16.077Z,6.58
2024-01-05T06:49:43.795Z,6.68
2024-01-05T06:52:11.443Z,6.74
2024-01-05T06:54:39.101Z,6.65
2024-01-05T06:57:08.219Z,6.68
2024-01-05T06:59:37.579Z,6.66
2024-01-05T07:02:07.153Z,6.72
2024-01-05T07:04:34.665Z,6.85
2024-01-05T07:07:02.177Z,6.88
2024-01-05T07:09:29.730Z,6.96
2024-01-05T07:11:57.277Z,6.82
2024-01-05T07:14:24.850Z,6.76
2024-01-05T07:16:52.411Z,6.74
2024-01-05T07:19:21.423Z,6.61
2024-01-05T07:21:49.006Z,6.63
2024-01-05T07:24:16.924Z,6.46
2024-01-05T07:26:44.495Z,6.44
2024-01-05T07:29:12.261Z,6.37
2024-01-05T07:31:39.770Z,6.35
2024-01-05T07:34:08.385Z,6.33
2024-01-05T07:36:37.403Z,6.32
2024-01-05T07:39:05.773Z,6.23
2024-01-05T07:41:33.296Z,6.12
2024-01-05T07:44:00.772Z,6.11
2024-01-05T07:46:28.391Z,6.16
2024-01-05T07:48:56.289Z,6.18
2024-01-05T07:51:24.711Z,6.17
2024-01-05T07:53:53.583Z,6.13
2024-01-05T07:56:21.072Z,6.28
2024-01-05T07:58:48.734Z,6.33
2024-01-05T08:01:16.959Z,6.56
2024-01-05T08:03:45.524Z,6.70
2024-01-05T08:06:17.253Z,6.84
2024-01-05T08:08:45.850Z,7.04
2024-01-05T08:11:14.820Z,7.22
2024-01-05T08:13:43.195Z,7.30
2024-01-05T08:16:11.738Z,7.16
2024-01-05T08:18:40.163Z,7.19
2024-01-05T08:21:08.000Z,7.25
2024-01-05T08:23:35.668Z,7.17
2024-01-05T08:26:04.878Z,7.19
2024-01-05T08:28:33.821Z,7.17
2024-01-05T08:31:01.455Z,7.23
2024-01-05T08:33:29.176Z,7.26
2024-01-05T08:36:04.561Z,7.40
2024-01-05T08:38:32.059Z,7.36
2024-01-05T08:40:59.554Z,7.29
2024-01-05T08:43:27.142Z,7.25
2024-01-05T08:45:56.015Z,7.25
2024-01-05T08:48:23.604Z,7.13
2024-01-05T08:50:51.359Z,7.03
2024-01-05T08:53:21.945Z,6.98
2024-01-05T08:55:49.460Z,6.93
2024-01-05T08:58:17.099Z,6.90
2024-01-05T09:00:44.891Z,6.85
2024-01-05T09:03:14.011Z,6.75
2024-01-05T09:05:41.656Z,6.79
2024-01-05T09:08:09.223Z,6.83
2024-01-05T09:10:36.705Z,6.95
2024-01-05T09:13:04.799Z,6.98
2024-01-05T09:15:32.331Z,7.07
2024-01-05T09:18:00.039Z,7.22
2024-01-05T09:20:28.996Z,7.32
2024-01-05T09:22:56.523Z,7.46
2024-01-05T09:25:24.117Z,7.47
2024-01-05T09:27:51.736Z,7.55
2024-01-05T09:30:19.499Z,7.58
2024-01-05T09:32:47.456Z,7.59
2024-01-05T09:35:15.806Z,7.63
2024-01-05T09:37:44.662Z,7.77
2024-01-05T09:40:13.322Z,7.95
2024-01-05T09:42:42.331Z,8.01
2024-01-05T09:45:12.970Z,8.16
2024-01-05T09:47:41.789Z,8.19
2024-01-05T09:50:11.643Z,8.39
2024-01-05T09:52:40.033Z,8.28
2024-01-05T09:55:09.628Z,8.29
2024-01-05T09:57:38.462Z,8.32
2024-01-05T10:00:08.899Z,8.39
2024-01-05T10:02:42.598Z,8.46
2024-01-05T10:05:10.739Z,8.38
2024-01-05T10:07:43.017Z,8.59
2024-01-05T10:10:13.696Z,8.53
2024-01-05T10:12:41.664Z,8.72
2024-01-05T10:15:12.822Z,8.92
2024-01-05T10:17:40.942Z,8.83
2024-01-05T10:20:16.553Z,8.78
2024-01-05T10:22:47.572Z,8.96
2024-01-05T10:25:17.892Z,9.04
2024-01-05T10:27:46.042Z,8.94
2024-01-05T10:30:26.142Z,9.12
2024-01-05T10:33:04.506Z,9.17
2024-01-05T10:35:32.152Z,9.25
2024-01-05T10:38:07.282Z,9.14
2024-01-05T10:40:36.156Z,9.29
2024-01-05T10:43:09.802Z,9.25
2024-01-05T10:45:39.055Z,9.21
2024-01-05T10:48:10.571Z,9.21
2024-01-05T10:50:40.910Z,9.22
2024-01-05T10:53:09.762Z,9.35
2024-01-05T10:55:39.847Z,9.38
2024-01-05T10:58:09.205Z,9.32
2024-01-05T11:00:36.819Z,9.34
2024-01-05T11:03:12.757Z,9.37
2024-01-05T11:05:42.603Z,9.44
2024-01-05T11:08:20.414Z,9.27
2024-01-05T11:11:11.767Z,9.38
2024-01-05T11:13:56.548Z,9.58
2024-01-05T11:16:45.899Z,9.47
2024-01-05T11:19:33.637Z,9.52
2024-01-05T11:22:05.884Z,9.32
2024-01-05T11:24:34.816Z,9.47
2024-01-05T11:27:30.543Z,9.38
2024-01-05T11:29:59.136Z,9.49
2024-01-05T11:32:37.528Z,9.38
2024-01-05T11:35:26.079Z,9.41
2024-01-05T11:37:54.078Z,9.50
2024-01-05T11:40:29.336Z,9.57
2024-01-05T11:42:58.831Z,9.57
2024-01-05T11:45:49.859Z,9.55
2024-01-05T11:48:47.996Z,9.53
2024-01-05T11:51:15.939Z,9.60
2024-01-05T11:53:45.860Z,9.68
2024-01-05T11:56:18.780Z,9.64
2024-01-05T11:58:48.088Z,9.70
2024-01-05T12:01:17.266Z,9.94
2024-01-05T12:03:45.561Z,9.90
2024-01-05T12:06:15.784Z,9.86
2024-01-05T12:08:43.556Z,10.39
2024-01-05T12:11:12.960Z,10.23
2024-01-05T12:13:41.122Z,9.97
2024-01-05T12:16:11.380Z,9.76
2024-01-05T12:18:46.838Z,9.97
2024-01-05T12:21:15.988Z,10.10
2024-01-05T12:23:52.403Z,9.92
2024-01-05T12:26:20.261Z,10.14
2024-01-05T12:28:49.210Z,9.96
2024-01-05T12:31:19.224Z,10.17
2024-01-05T12:33:48.017Z,10.16
2024-01-05T12:36:27.056Z,10.18
2024-01-05T12:38:54.643Z,10.04
2024-01-05T12:41:22.339Z,10.01
2024-01-05T12:43:52.549Z,10.17
2024-01-05T12:46:24.254Z,10.12
2024-01-05T12:48:52.629Z,10.21
2024-01-05T12:51:23.156Z,10.30
2024-01-05T12:53:59.374Z,10.30
2024-01-05T12:56:26.900Z,10.09
2024-01-05T12:58:55.003Z,10.32
2024-01-05T13:01:25.645Z,10.20
2024-01-05T13:03:54.282Z,10.15
2024-01-05T13:06:23.746Z,10.26
2024-01-05T13:08:52.338Z,10.30
2024-01-05T13:11:21.893Z,10.18
2024-01-05T13:13:50.807Z,10.24
2024-01-05T13:16:19.013Z,10.12
2024-01-05T13:18:48.274Z,10.29
2024-01-05T13:21:16.060Z,10.13
2024-01-05T13:23:44.923Z,10.14
2024-01-05T13:26:12.549Z,10.16
2024-01-05T13:28:41.393Z,10.20
2024-01-05T13:31:09.586Z,10.24
2024-01-05T13:33:37.548Z,10.17
2024-01-05T13:36:07.367Z,10.09
2024-01-05T13:38:34.892Z,9.99
2024-01-05T13:41:02.402Z,9.99
2024-01-05T13:43:28.924Z,9.93
2024-01-05T13:45:56.448Z,9.83
2024-01-05T13:48:24.184Z,9.80
2024-01-05T13:50:51.857Z,9.81
2024-01-05T13:53:20.711Z,9.74
2024-01-05T13:55:49.127Z,9.69
2024-01-05T13:58:16.831Z,9.61
2024-01-05T14:00:45.752Z,9.64
2024-01-05T14:03:13.442Z,9.60
2024-01-05T14:05:40.999Z,9.59
2024-01-05T14:08:08.660Z,9.61
2024-01-05T14:10:37.484Z,9.63
2024-01-05T14:13:05.366Z,9.63
2024-01-05T14:15:32.892Z,9.62
2024-01-05T14:18:01.391Z,9.70
2024-01-05T14:20:30.438Z,9.63
2024-01-05T14:22:58.071Z,9.68
2024-01-05T14:25:25.678Z,9.57
2024-01-05T14:27:54.571Z,9.59
2024-01-05T14:30:22.145Z,9.53
2024-01-05T14:32:49.684Z,9.44
2024-01-05T14:35:17.432Z,9.38
2024-01-05T14:37:45.008Z,9.18
2024-01-05T14:40:13.688Z,9.21
2024-01-05T14:42:41.408Z,9.10
2024-01-05T14:45:10.888Z,9.03
2024-01-05T14:47:41.879Z,9.02
2024-01-05T14:50:10.732Z,9.01
2024-01-05T14:52:38.210Z,8.99
2024-01-05T14:55:06.685Z,9.01
2024-01-05T14:57:34.545Z,8.94
2024-01-05T15:00:02.371Z,8.81
2024-01-05T15:02:32.770Z,8.89
2024-01-05T15:05:00.248Z,8.88
2024-01-05T15:07:27.822Z,8.79
2024-01-05T15:09:55.366Z,8.72
2024-01-05T15:12:22.917Z,8.68
2024-01-05T15:14:50.438Z,8.70
2024-01-05T15:17:17.965Z,8.78
2024-01-05T15:19:47.792Z,8.71
2024-01-05T15:22:15.399Z,8.75
2024-01-05T15:24:46.268Z,8.76
2024-01-05T15:27:14.406Z,8.64
2024-01-05T15:29:42.000Z,8.64
2024-01-05T15:32:09.519Z,8.56
2024-01-05T15:34:37.104Z,8.63
2024-01-05T15:37:06.102Z,8.63
2024-01-05T15:39:33.679Z,8.50
2024-01-05T15:42:01.330Z,8.40
2024-01-05T15:44:28.826Z,8.32
2024-01-05T15:46:56.314Z,8.21
2024-01-05T15:49:25.365Z,8.20
2024-01-05T15:51:53.064Z,8.12
2024-01-05T15:54:21.989Z,8.07
2024-01-05T15:56:49.564Z,7.99
2024-01-05T15:59:17.167Z,7.94
2024-01-05T16:01:48.262Z,7.82
2024-01-05T16:04:15.938Z,7.71
2024-01-05T16:06:43.750Z,7.70
2024-01-05T16:09:11.382Z,7.63
2024-01-05T16:11:40.501Z,7.50
2024-01-05T16:14:08.132Z,7.49
2024-01-05T16:16:40.153Z,7.63
2024-01-05T16:19:08.386Z,7.74
2024-01-05T16:21:37.872Z,7.57
2024-01-05T16:24:07.629Z,7.36
2024-01-05T16:26:35.263Z,7.20
2024-01-05T16:29:04.095Z,7.10
2024-01-05T16:31:31.768Z,7.04
2024-01-05T16:33:59.636Z,7.10
2024-01-05T16:36:27.286Z,7.14
2024-01-05T16:38:54.944Z,7.08
2024-01-05T16:41:24.880Z,7.04
2024-01-05T16:43:53.020Z,6.89
2024-01-05T16:46:22.187Z,6.76
2024-01-05T16:48:53.622Z,6.87
2024-01-05T16:51:22.507Z,6.74
2024-01-05T16:54:11.435Z,6.57
2024-01-05T16:56:45.669Z,6.53
2024-01-05T16:59:15.929Z,6.63
2024-01-05T17:01:44.875Z,6.46
2024-01-05T17:04:12.482Z,6.34
2024-01-05T17:06:42.984Z,6.28
2024-01-05T17:09:11.527Z,6.16
2024-01-05T17:11:39.090Z,6.29
2024-01-05T17:14:06.953Z,6.18
2024-01-05T17:16:34.428Z,6.07
2024-01-05T17:19:03.501Z,5.94
2024-01-05T17:21:31.174Z,5.83
2024-01-05T17:23:58.728Z,5.83
2024-01-05T17:26:26.935Z,5.90
2024-01-05T17:28:54.484Z,6.03
2024-01-05T17:31:22.158Z,6.04
2024-01-05T17:33:49.940Z,5.99
2024-01-05T17:36:20.326Z,6.16
2024-01-05T17:38:50.443Z,6.17
2024-01-05T17:41:17.932Z,6.04
2024-01-05T17:43:45.473Z,6.09
2024-01-05T17:46:12.963Z,6.31
2024-01-05T17:48:40.674Z,6.21
2024-01-05T17:51:08.323Z,6.18
2024-01-05T17:53:39.411Z,6.21
2024-01-05T17:56:07.857Z,6.05
2024-01-05T17:58:35.456Z,6.01
2024-01-05T18:01:07.182Z,6.13
2024-01-05T18:03:37.130Z,6.04
2024-01-05T18:06:09.811Z,5.88
2024-01-05T18:08:38.800Z,5.91
2024-01-05T18:11:06.383Z,5.84
2024-01-05T18:13:33.871Z,5.88
2024-01-05T18:16:02.932Z,6.01
2024-01-05T18:18:31.791Z,5.83
2024-01-05T18:20:59.372Z,5.66
2024-01-05T18:23:26.849Z,5.67
2024-01-05T18:25:56.539Z,5.51
2024-01-05T18:28:24.797Z,5.39
2024-01-05T18:30:52.360Z,5.40
2024-01-05T18:33:21.286Z,5.51
2024-01-05T18:35:49.003Z,5.45
2024-01-05T18:38:16.717Z,5.42
2024-01-05T18:40:44.665Z,5.28
2024-01-05T18:43:14.806Z,5.19
2024-01-05T18:45:42.455Z,5.13
2024-01-05T18:48:10.328Z,5.37
2024-01-05T18:50:39.518Z,5.40
2024-01-05T18:53:07.068Z,5.51
2024-01-05T18:55:34.638Z,5.58
2024-01-05T18:58:02.124Z,5.64
2024-01-05T19:00:31.362Z,5.85
2024-01-05T19:02:58.904Z,5.85
2024-01-05T19:05:26.675Z,5.86
2024-01-05T19:07:54.275Z,5.76
2024-01-05T19:10:21.795Z,5.70
2024-01-05T19:12:49.345Z,5.84
2024-01-05T19:15:16.912Z,5.80
2024-01-05T19:17:45.884Z,5.83
2024-01-05T19:20:13.551Z,5.76
2024-01-05T19:22:42.977Z,5.83
2024-01-05T19:25:10.625Z,6.12
2024-01-05T19:27:38.283Z,6.00
2024-01-05T19:30:07.938Z,5.89
2024-01-05T19:32:35.871Z,5.96
2024-01-05T19:35:06.888Z,5.95
2024-01-05T19:37:34.390Z,5.85
2024-01-05T19:40:01.888Z,5.88
2024-01-05T19:42:29.530Z,6.05
2024-01-05T19:44:58.007Z,5.87
2024-01-05T19:47:26.361Z,5.93
2024-01-05T19:49:54.224Z,5.79
2024-01-05T19:52:23.316Z,5.77
2024-01-05T19:54:54.525Z,5.84
2024-01-05T19:57:22.509Z,5.85
2024-01-05T19:59:50.179Z,5.79
2024-01-05T20:02:17.829Z,5.70
2024-01-05T20:04:46.025Z,5.71
2024-01-05T20:07:14.489Z,5.65
2024-01-05T20:09:44.215Z,5.54
2024-01-05T20:12:17.457Z,5.48
2024-01-05T20:14:45.356Z,5.32
2024-01-05T20:17:13.795Z,5.20
2024-01-05T20:19:42.710Z,5.19
2024-01-05T20:22:10.456Z,5.10
2024-01-05T20:24:38.183Z,5.04
2024-01-05T20:27:10.091Z,4.92
2024-01-05T20:29:41.260Z,4.83
2024-01-05T20:32:09.817Z,4.98
2024-01-05T20:34:37.781Z,5.06
2024-01-05T20:37:05.807Z,5.15
2024-01-05T20:39:33.351Z,5.25
2024-01-05T20:42:00.870Z,5.21
2024-01-05T20:44:29.667Z,5.12
2024-01-05T20:46:58.000Z,4.98
2024-01-05T20:49:25.705Z,4.76
2024-01-05T20:51:55.362Z,4.52
2024-01-05T20:54:22.909Z,4.32
2024-01-05T20:56:50.404Z,4.24
2024-01-05T20:59:18.182Z,4.19
2024-01-05T21:01:47.140Z,4.15
2024-01-05T21:04:16.383Z,4.08
2024-01-05T21:06:45.003Z,3.93
2024-01-05T21:09:13.193Z,3.86
2024-01-05T21:11:40.963Z,3.80
2024-01-05T21:14:08.471Z,3.72
2024-01-05T21:16:40.976Z,3.59
2024-01-05T21:19:10.192Z,3.52
2024-01-05T21:21:41.908Z,3.49
2024-01-05T21:24:09.586Z,3.39
2024-01-05T21:26:41.568Z,3.41
2024-01-05T21:29:09.126Z,3.36
2024-01-05T21:31:36.973Z,3.31
2024-01-05T21:34:04.643Z,3.29
2024-01-05T21:36:33.519Z,3.24
2024-01-05T21:39:01.456Z,3.17
2024-01-05T21:41:30.422Z,3.08
2024-01-05T21:43:58.013Z,3.07
2024-01-05T21:46:25.848Z,3.05
2024-01-05T21:48:54.486Z,3.06
2024-01-05T21:51:22.260Z,3.10
2024-01-05T21:53:51.155Z,3.13
2024-01-05T21:56:18.845Z,3.18
2024-01-05T21:58:46.642Z,3.15
2024-01-05T22:01:14.402Z,3.17
2024-01-05T22:03:42.063Z,3.24
2024-01-05T22:06:10.003Z,3.20
2024-01-05T22:08:37.609Z,3.26
2024-01-05T22:11:08.230Z,3.21
2024-01-05T22:13:35.736Z,3.28
2024-01-05T22:16:03.774Z,3.42
2024-01-05T22:18:34.210Z,3.73
2024-01-05T22:21:10.325Z,4.08
2024-01-05T22:23:41.474Z,4.26
2024-01-05T22:26:19.800Z,4.29
2024-01-05T22:28:49.233Z,4.17
2024-01-05T22:31:17.010Z,4.08
2024-01-05T22:33:44.905Z,3.97
2024-01-05T22:36:13.726Z,3.89
2024-01-05T22:38:41.920Z,3.86
2024-01-05T22:41:12.388Z,3.82
2024-01-05T22:43:41.272Z,3.81
2024-01-05T22:46:09.801Z,3.83
2024-01-05T22:48:38.455Z,3.82
2024-01-05T22:51:06.754Z,3.84
2024-01-05T22:53:34.358Z,3.81
2024-01-05T22:56:01.917Z,3.87
2024-01-05T22:58:30.781Z,3.98
2024-01-05T23:00:58.384Z,4.09
2024-01-05T23:03:26.091Z,4.12
2024-01-05T23:05:53.641Z,4.22
2024-01-05T23:08:24.023Z,4.21
2024-01-05T23:10:53.446Z,4.17
2024-01-05T23:13:20.992Z,4.10
2024-01-05T23:15:50.336Z,4.31
2024-01-05T23:18:18.043Z,4.49
2024-01-05T23:20:45.695Z,4.63
2024-01-05T23:23:13.188Z,4.65
2024-01-05T23:25:40.669Z,4.64
2024-01-05T23:28:08.142Z,4.65
2024-01-05T23:30:35.735Z,4.65
2024-01-05T23:33:05.191Z,4.67
2024-01-05T23:35:32.848Z,4.67
2024-01-05T23:38:00.330Z,4.77
2024-01-05T23:40:27.876Z,4.82
2024-01-05T23:42:55.540Z,4.81
2024-01-05T23:45:23.168Z,4.70
2024-01-05T23:47:52.731Z,4.86
2024-01-05T23:50:21.721Z,4.86
2024-01-05T23:52:49.956Z,4.82
2024-01-05T23:55:19.274Z,4.78
2024-01-05T23:57:46.925Z,4.77
